Piedmont Triad International Airport
KGSO : rendu visible

Aérodrome :











RETROUVEZ-NOUS SUR...

 
LOGIN :

S'inscrire | Disclaimer

   EN    FR    IT 

 









Légende :    VFR   VFR Marginal   IFR   IFR Intensif   IFR Très Intensif
Visi : 
Plafond : 
>= 8 km
>= 3000ft
5 à 8 km
1000 à 3000 ft
1500m à 5 km
500 à 1000 ft
800 à 1500m
200 à 500 ft
< 800m
< 200 ft
Symboles :   Orages  Brouillard  Fortes neiges  Fortes précipitations  Vent > 20 kt






- Altitude de l'aérodrome : 925 ft
- Code IATA : GSO


KGSO - Piedmont Triad International

DERNIER METAR :
  • 171854Z 06007KT 10SM SCT250 06/M09 A3061 RMK AO2 SLP371 T00611094

METARs EXPIRÉS :
  • 171754Z 06008KT 10SM BKN250 06/M09 A3063 RMK AO2 SLP377 T00561094 10056 20011 58008
  • 171654Z VRB03KT 10SM BKN230 04/M09 A3066 RMK AO2 SLP386 T00441094

TAF KGSO
Valide du 17 à 18h jusqu'au 18 à 18h UTC


171720Z 1718/1818 03010G16KT P6SM BKN250
FM172300 10004KT P6SM BKN100 OVC250
FM181200 15005KT P6SM BKN020 OVC060
TEMPO 1814/1818 3SM -RA BR SCT005 BKN012



MET'MAP, la Météo Aéronautique d'un coup d'oeil ! - Copyright ORBIFLY Décembre 2007 - Disclaimer

ORBIFLY MET'MAP TEAM :

Programmation & Développement : Alexandra Zaïnal
Sur une idée originale de : Baudouin d'Aumeries
Assistance à la programmation : Marc-Olivier Méhu
Soutien technique & logistique : Manuel Goepfert

Contact : metmap@orbifly.com




SOURCES & CREDITS :

   NOAA       Earth
Advisory